Naper, Nebraska
Current Conditions -  °F | °C
As of 6:15 PM on Thursday 27 Nov 2014 (Local Time) from KONL Reporting Station
Clear Clear  
Wind Chill: 20°   Ceiling: Unl
Heat Index: 31°   Visibility: 10mi
Dew Point: 19°   Wind: 16mph
Humidity: 60%   Direction: 150°SSE
Pressure: 30.06"   Gusts: NA
Location:  42.96°N, 99.1°W
Report Text: KONL 280015Z AUTO 15014KT 10SM CLR 00/M07 A3006 RMK AO2 T10051075
Loading
Personal Weather Stations






























Interactive Weather Map New forecast layout! Learn more

10-Day Weather Forecast

Advertisements
Track Severe Weather on mobile